createdAt,value
2019-04-04T00:01:02.169Z,19.23
2019-04-04T00:03:31.625Z,22.20
2019-04-04T00:06:00.942Z,22.10
2019-04-04T00:08:31.636Z,18.37
2019-04-04T00:10:59.830Z,24.47
2019-04-04T00:13:29.311Z,22.73
2019-04-04T00:15:58.667Z,20.40
2019-04-04T00:18:28.419Z,25.47
2019-04-04T00:20:57.713Z,26.67
2019-04-04T00:23:27.029Z,22.53
2019-04-04T00:26:17.899Z,24.87
2019-04-04T00:28:47.235Z,26.13
2019-04-04T00:31:18.906Z,24.57
2019-04-04T00:33:45.867Z,27.50
2019-04-04T00:36:15.723Z,27.53
2019-04-04T00:38:45.021Z,26.50
2019-04-04T00:41:14.614Z,28.83
2019-04-04T00:43:46.022Z,29.70
2019-04-04T00:46:15.402Z,26.63
2019-04-04T00:48:44.712Z,30.33
2019-04-04T00:51:13.952Z,27.77
2019-04-04T00:53:43.599Z,32.60
2019-04-04T00:56:12.528Z,30.63
2019-04-04T00:58:41.967Z,29.27
2019-04-04T01:01:11.282Z,31.70
2019-04-04T01:03:40.576Z,31.40
2019-04-04T01:06:09.983Z,33.37
2019-04-04T01:08:39.314Z,33.53
2019-04-04T01:11:08.569Z,34.53
2019-04-04T01:13:37.858Z,36.00
2019-04-04T01:16:07.135Z,36.83
2019-04-04T01:18:37.455Z,38.53
2019-04-04T01:21:05.635Z,37.50
2019-04-04T01:23:34.911Z,40.07
2019-04-04T01:26:04.214Z,42.33
2019-04-04T01:28:33.521Z,43.00
2019-04-04T01:31:02.854Z,38.90
2019-04-04T01:33:32.120Z,39.50
2019-04-04T01:36:01.365Z,38.40
2019-04-04T01:38:30.605Z,38.97
2019-04-04T01:40:59.843Z,42.97
2019-04-04T01:43:29.077Z,41.43
2019-04-04T01:45:58.319Z,41.87
2019-04-04T01:48:27.619Z,43.73
2019-04-04T01:50:56.859Z,43.63
2019-04-04T01:53:26.132Z,42.87
2019-04-04T01:55:55.439Z,45.97
2019-04-04T01:58:24.681Z,49.33
2019-04-04T02:00:53.932Z,51.13
2019-04-04T02:03:23.394Z,51.33
2019-04-04T02:05:52.370Z,50.90
2019-04-04T02:08:21.625Z,52.47
2019-04-04T02:10:50.891Z,54.03
2019-04-04T02:13:20.128Z,56.53
2019-04-04T02:15:49.367Z,58.13
2019-04-04T02:18:18.639Z,65.53
2019-04-04T02:20:47.852Z,55.47
2019-04-04T02:23:17.067Z,56.03
2019-04-04T02:25:46.282Z,60.67
2019-04-04T02:28:15.507Z,61.43
2019-04-04T02:30:48.022Z,57.20
2019-04-04T02:33:14.009Z,61.57
2019-04-04T02:35:43.959Z,59.23
2019-04-04T02:38:12.536Z,55.17
2019-04-04T02:40:42.281Z,56.60
2019-04-04T02:43:10.952Z,59.87
2019-04-04T02:45:40.162Z,56.33
2019-04-04T02:48:09.418Z,59.13
2019-04-04T02:50:38.736Z,64.60
2019-04-04T02:53:08.035Z,55.07
2019-04-04T02:55:37.326Z,51.83
2019-04-04T02:58:06.605Z,62.00
2019-04-04T03:00:35.916Z,57.00
2019-04-04T03:03:08.028Z,56.23
2019-04-04T03:05:34.642Z,57.37
2019-04-04T03:08:04.584Z,54.93
2019-04-04T03:10:33.091Z,51.07
2019-04-04T03:13:02.320Z,53.27
2019-04-04T03:15:31.535Z,58.57
2019-04-04T03:18:04.071Z,55.67
2019-04-04T03:20:30.013Z,51.80
2019-04-04T03:23:00.580Z,59.17
2019-04-04T03:25:28.484Z,60.67
2019-04-04T03:27:58.258Z,55.73
2019-04-04T03:30:26.972Z,56.97
2019-04-04T03:32:56.230Z,57.30
2019-04-04T03:35:28.086Z,64.33
2019-04-04T03:37:54.766Z,65.30
2019-04-04T03:40:25.588Z,54.40
2019-04-04T03:42:53.349Z,58.87
2019-04-04T03:45:26.188Z,64.37
2019-04-04T03:47:51.802Z,59.63
2019-04-04T03:50:21.006Z,58.27
2019-04-04T03:52:50.287Z,52.57
2019-04-04T03:55:19.458Z,58.37
2019-04-04T03:57:48.724Z,57.70
2019-04-04T04:00:27.247Z,53.60
2019-04-04T04:02:56.511Z,57.67
2019-04-04T04:05:26.239Z,52.63
2019-04-04T04:07:55.452Z,54.73
2019-04-04T04:10:24.712Z,58.53
2019-04-04T04:12:53.941Z,57.03
2019-04-04T04:15:23.166Z,55.23
2019-04-04T04:17:52.396Z,54.73
2019-04-04T04:20:21.615Z,60.90
2019-04-04T04:22:51.665Z,55.00
2019-04-04T04:25:20.166Z,56.90
2019-04-04T04:27:50.382Z,57.07
2019-04-04T04:30:19.642Z,53.50
2019-04-04T04:32:48.897Z,53.60
2019-04-04T04:35:18.176Z,50.37
2019-04-04T04:37:52.310Z,52.67
2019-04-04T04:40:16.793Z,52.87
2019-04-04T04:42:46.029Z,57.10
2019-04-04T04:45:15.275Z,54.00
2019-04-04T04:47:44.479Z,55.50
2019-04-04T04:50:13.722Z,53.03
2019-04-04T04:52:46.494Z,54.63
2019-04-04T04:55:12.299Z,51.03
2019-04-04T04:57:41.396Z,54.10
2019-04-04T05:00:10.841Z,53.43
2019-04-04T05:02:40.203Z,63.27
2019-04-04T05:05:09.591Z,64.40
2019-04-04T05:07:39.140Z,59.13
2019-04-04T05:10:08.176Z,65.33
2019-04-04T05:12:37.469Z,59.90
2019-04-04T05:15:06.795Z,62.93
2019-04-04T05:17:36.165Z,66.50
2019-04-04T05:20:06.159Z,65.20
2019-04-04T05:22:35.440Z,64.70
2019-04-04T05:25:08.394Z,58.50
2019-04-04T05:27:36.848Z,63.90
2019-04-04T05:30:03.682Z,66.77
2019-04-04T05:32:32.959Z,68.23
2019-04-04T05:35:02.271Z,68.67
2019-04-04T05:37:31.515Z,59.57
2019-04-04T05:40:00.821Z,61.40
2019-04-04T05:42:32.779Z,64.57
2019-04-04T05:44:59.467Z,59.30
2019-04-04T05:47:28.848Z,60.80
2019-04-04T05:49:58.458Z,60.77
2019-04-04T05:52:27.839Z,54.07
2019-04-04T05:54:57.423Z,53.13
2019-04-04T05:57:26.629Z,51.47
2019-04-04T05:59:56.191Z,50.77
2019-04-04T06:02:25.053Z,50.70
2019-04-04T06:04:55.412Z,54.90
2019-04-04T06:07:23.556Z,52.43
2019-04-04T06:09:52.983Z,52.47
2019-04-04T06:12:24.722Z,53.50
2019-04-04T06:14:51.523Z,53.77
2019-04-04T06:17:20.765Z,48.07
2019-04-04T06:19:50.047Z,47.13
2019-04-04T06:22:21.127Z,45.87
2019-04-04T06:24:48.643Z,37.17
2019-04-04T06:27:17.910Z,37.53
2019-04-04T06:29:47.978Z,32.37
2019-04-04T06:32:16.523Z,33.93
2019-04-04T06:34:45.770Z,31.67
2019-04-04T06:37:15.078Z,34.10
2019-04-04T06:39:44.374Z,36.57
2019-04-04T06:42:13.656Z,38.87
2019-04-04T06:44:43.904Z,39.80
2019-04-04T06:47:12.125Z,38.97
2019-04-04T06:49:41.343Z,41.00
2019-04-04T06:52:10.575Z,41.27
2019-04-04T06:54:39.835Z,38.97
2019-04-04T06:57:09.065Z,40.47
2019-04-04T06:59:38.389Z,37.40
2019-04-04T07:02:07.626Z,39.30
2019-04-04T07:04:36.867Z,37.27
2019-04-04T07:07:06.092Z,38.33
2019-04-04T07:09:37.243Z,35.23
2019-04-04T07:12:06.500Z,40.33
2019-04-04T07:14:45.254Z,38.73
2019-04-04T07:17:03.404Z,36.10
2019-04-04T07:19:32.445Z,33.90
2019-04-04T07:22:01.667Z,32.37
2019-04-04T07:24:31.181Z,34.50
2019-04-04T07:27:00.192Z,35.97
2019-04-04T07:29:29.360Z,43.97
2019-04-04T07:31:58.559Z,37.53
2019-04-04T07:34:27.838Z,33.07
2019-04-04T07:36:57.107Z,32.77
2019-04-04T07:39:26.330Z,34.93
2019-04-04T07:41:55.560Z,35.47
2019-04-04T07:44:24.873Z,33.67
2019-04-04T07:46:54.077Z,33.97
2019-04-04T07:49:23.948Z,32.80
2019-04-04T07:51:52.555Z,35.23
2019-04-04T07:54:21.786Z,32.33
2019-04-04T07:56:51.021Z,35.33
2019-04-04T07:59:20.267Z,33.60
2019-04-04T08:01:51.292Z,35.50
2019-04-04T08:04:18.948Z,33.53
2019-04-04T08:06:48.178Z,35.90
2019-04-04T08:09:17.422Z,37.90
2019-04-04T08:11:46.636Z,33.03
2019-04-04T08:14:15.900Z,36.90
2019-04-04T08:16:45.146Z,36.03
2019-04-04T08:19:14.375Z,36.13
2019-04-04T08:21:43.608Z,35.73
2019-04-04T08:24:12.850Z,35.13
2019-04-04T08:26:42.071Z,36.37
2019-04-04T08:29:11.290Z,35.50
2019-04-04T08:31:40.572Z,31.57
2019-04-04T08:34:09.872Z,35.17
2019-04-04T08:36:39.083Z,32.27
2019-04-04T08:39:11.334Z,34.10
2019-04-04T08:41:40.708Z,31.60
2019-04-04T08:44:10.109Z,32.23
2019-04-04T08:46:39.370Z,31.50
2019-04-04T08:49:08.638Z,32.67
2019-04-04T08:51:37.890Z,36.90
2019-04-04T08:54:07.199Z,33.67
2019-04-04T08:56:36.444Z,32.40
2019-04-04T08:59:05.670Z,33.07
2019-04-04T09:01:34.948Z,33.27
2019-04-04T09:04:04.181Z,36.30
2019-04-04T09:06:33.415Z,38.43
2019-04-04T09:09:02.702Z,33.33
2019-04-04T09:11:31.974Z,41.13
2019-04-04T09:14:01.160Z,35.97
2019-04-04T09:16:30.470Z,34.17
2019-04-04T09:18:59.696Z,38.67
2019-04-04T09:21:28.964Z,35.33
2019-04-04T09:24:00.466Z,33.00
2019-04-04T09:26:27.467Z,33.07
2019-04-04T09:28:56.676Z,31.67
2019-04-04T09:31:25.948Z,30.87
2019-04-04T09:33:55.185Z,32.33
2019-04-04T09:36:24.422Z,31.70
2019-04-04T09:38:53.699Z,33.40
2019-04-04T09:41:22.927Z,30.97
2019-04-04T09:43:52.168Z,31.53
2019-04-04T09:46:21.432Z,29.93
2019-04-04T09:48:50.699Z,28.70
2019-04-04T09:51:19.998Z,27.90
2019-04-04T09:53:53.148Z,29.27
2019-04-04T09:56:18.502Z,30.77
2019-04-04T09:58:47.728Z,28.30
2019-04-04T10:01:16.961Z,30.13
2019-04-04T10:03:46.224Z,28.30
2019-04-04T10:06:15.474Z,27.33
2019-04-04T10:08:44.717Z,30.33
2019-04-04T10:11:14.025Z,31.17
2019-04-04T10:13:43.312Z,30.67
2019-04-04T10:16:12.551Z,32.00
2019-04-04T10:18:41.771Z,31.17
2019-04-04T10:21:12.441Z,30.37
2019-04-04T10:23:40.357Z,31.07
2019-04-04T10:26:09.656Z,28.47
2019-04-04T10:28:38.935Z,30.57
2019-04-04T10:31:08.137Z,31.47
2019-04-04T10:33:37.363Z,32.70
2019-04-04T10:36:06.585Z,31.17
2019-04-04T10:38:35.849Z,31.37
2019-04-04T10:41:05.103Z,30.10
2019-04-04T10:43:34.325Z,32.93
2019-04-04T10:46:03.520Z,30.57
2019-04-04T10:48:32.738Z,30.27
2019-04-04T10:51:01.952Z,33.23
2019-04-04T10:53:31.195Z,30.10
2019-04-04T10:56:00.414Z,32.03
2019-04-04T10:58:29.693Z,31.27
2019-04-04T11:00:58.914Z,33.00
2019-04-04T11:03:28.212Z,29.53
2019-04-04T11:05:57.437Z,32.27
2019-04-04T11:08:26.682Z,30.57
2019-04-04T11:10:58.850Z,31.73
2019-04-04T11:13:33.341Z,32.43
2019-04-04T11:15:54.534Z,31.27
2019-04-04T11:18:23.788Z,31.03
2019-04-04T11:20:52.996Z,30.07
2019-04-04T11:23:22.259Z,33.27
2019-04-04T11:25:51.512Z,31.73
2019-04-04T11:28:20.755Z,32.93
2019-04-04T11:30:49.988Z,31.10
2019-04-04T11:33:19.293Z,29.00
2019-04-04T11:35:48.555Z,30.90
2019-04-04T11:38:17.809Z,27.33
2019-04-04T11:40:47.024Z,31.63
2019-04-04T11:43:16.264Z,32.77
2019-04-04T11:45:45.512Z,32.93
2019-04-04T11:48:14.746Z,31.23
2019-04-04T11:50:43.959Z,33.77
2019-04-04T11:53:13.313Z,35.03
2019-04-04T11:55:42.577Z,30.43
2019-04-04T11:58:11.800Z,31.67
2019-04-04T12:00:42.368Z,31.17
2019-04-04T12:03:11.593Z,31.37
2019-04-04T12:05:40.834Z,36.67
2019-04-04T12:08:10.067Z,35.83
2019-04-04T12:10:39.348Z,35.57
2019-04-04T12:13:08.628Z,34.63
2019-04-04T12:15:37.904Z,32.67
2019-04-04T12:18:07.140Z,33.80
2019-04-04T12:20:36.383Z,34.03
2019-04-04T12:23:05.628Z,37.97
2019-04-04T12:25:34.884Z,37.23
2019-04-04T12:28:04.106Z,36.93
2019-04-04T12:30:33.407Z,36.70
2019-04-04T12:33:02.645Z,39.17
2019-04-04T12:35:31.888Z,37.20
2019-04-04T12:38:01.106Z,38.20
2019-04-04T12:40:30.322Z,33.93
2019-04-04T12:42:59.608Z,35.03
2019-04-04T12:45:28.873Z,39.23
2019-04-04T12:47:58.100Z,33.60
2019-04-04T12:50:27.334Z,38.10
2019-04-04T12:52:56.622Z,38.80
2019-04-04T12:55:25.860Z,35.27
2019-04-04T12:57:55.109Z,37.40
2019-04-04T13:00:24.352Z,35.70
2019-04-04T13:02:53.624Z,35.67
2019-04-04T13:05:22.866Z,33.87
2019-04-04T13:07:52.143Z,34.20
2019-04-04T13:10:32.535Z,34.07
2019-04-04T13:12:50.666Z,35.63
2019-04-04T13:15:19.947Z,33.17
2019-04-04T13:17:49.160Z,33.07
2019-04-04T13:20:18.364Z,37.30
2019-04-04T13:22:47.630Z,34.37
2019-04-04T13:25:16.942Z,34.10
2019-04-04T13:27:46.232Z,33.63
2019-04-04T13:30:15.458Z,33.20
2019-04-04T13:32:44.681Z,30.90
2019-04-04T13:35:14.022Z,32.80
2019-04-04T13:37:43.261Z,33.73
2019-04-04T13:40:12.534Z,31.90
2019-04-04T13:42:41.782Z,31.67
2019-04-04T13:45:11.573Z,34.50
2019-04-04T13:47:40.803Z,30.57
2019-04-04T13:50:12.459Z,32.57
2019-04-04T13:52:39.338Z,34.10
2019-04-04T13:55:08.566Z,33.60
2019-04-04T13:57:39.242Z,32.87
2019-04-04T14:00:07.122Z,32.67
2019-04-04T14:02:36.449Z,32.73
2019-04-04T14:05:10.183Z,30.90
2019-04-04T14:07:35.693Z,32.77
2019-04-04T14:10:05.582Z,32.50
2019-04-04T14:12:34.999Z,31.73
2019-04-04T14:15:04.650Z,31.50
2019-04-04T14:17:33.986Z,33.40
2019-04-04T14:20:03.199Z,31.97
2019-04-04T14:22:32.464Z,35.93
2019-04-04T14:25:01.775Z,32.97
2019-04-04T14:27:30.982Z,31.97
2019-04-04T14:30:00.185Z,31.57
2019-04-04T14:32:29.432Z,34.33
2019-04-04T14:34:58.647Z,31.23
2019-04-04T14:37:27.882Z,33.97
2019-04-04T14:39:57.280Z,36.03
2019-04-04T14:42:26.517Z,32.07
2019-04-04T14:44:55.784Z,36.37
2019-04-04T14:47:25.008Z,33.37
2019-04-04T14:49:54.227Z,31.73
2019-04-04T14:52:24.292Z,34.33
2019-04-04T14:54:52.654Z,33.63
2019-04-04T14:57:21.930Z,34.07
2019-04-04T14:59:51.171Z,34.37
2019-04-04T15:02:20.572Z,33.53
2019-04-04T15:04:49.827Z,32.13
2019-04-04T15:07:19.033Z,35.10
2019-04-04T15:09:48.378Z,30.43
2019-04-04T15:12:17.602Z,31.90
2019-04-04T15:14:46.833Z,33.50
2019-04-04T15:17:16.144Z,33.20
2019-04-04T15:19:45.770Z,32.47
2019-04-04T15:22:15.062Z,31.47
2019-04-04T15:24:44.312Z,33.90
2019-04-04T15:27:12.868Z,34.50
2019-04-04T15:29:42.172Z,31.83
2019-04-04T15:32:11.416Z,36.27
2019-04-04T15:34:40.684Z,32.60
2019-04-04T15:37:09.883Z,33.43
2019-04-04T15:39:39.134Z,31.90
2019-04-04T15:42:08.470Z,33.43
2019-04-04T15:44:37.769Z,32.37
2019-04-04T15:47:07.034Z,31.47
2019-04-04T15:49:36.387Z,41.53
2019-04-04T15:52:05.686Z,34.13
2019-04-04T15:54:34.932Z,32.10
2019-04-04T15:57:04.160Z,34.23
2019-04-04T15:59:33.377Z,34.73
2019-04-04T16:02:02.626Z,32.73
2019-04-04T16:04:31.969Z,35.23
2019-04-04T16:07:02.209Z,34.90
2019-04-04T16:09:31.498Z,35.77
2019-04-04T16:12:00.710Z,35.13
2019-04-04T16:14:29.942Z,34.90
2019-04-04T16:16:59.247Z,37.97
2019-04-04T16:19:28.452Z,36.83
2019-04-04T16:21:57.748Z,52.47
2019-04-04T16:24:26.984Z,38.63
2019-04-04T16:26:56.333Z,35.53
2019-04-04T16:29:25.543Z,39.10
2019-04-04T16:31:54.840Z,37.80
2019-04-04T16:34:24.103Z,35.13
2019-04-04T16:36:53.411Z,39.37
2019-04-04T16:39:22.674Z,39.00
2019-04-04T16:42:01.485Z,37.97
2019-04-04T16:44:21.180Z,37.97
2019-04-04T16:46:50.518Z,38.73
2019-04-04T16:49:19.730Z,39.30
2019-04-04T16:51:48.988Z,39.43
2019-04-04T16:54:18.415Z,44.93
2019-04-04T16:56:47.688Z,39.67
2019-04-04T16:59:16.994Z,38.83
2019-04-04T17:01:46.237Z,39.13
2019-04-04T17:04:15.464Z,38.30
2019-04-04T17:06:44.741Z,40.27
2019-04-04T17:09:13.970Z,40.20
2019-04-04T17:11:43.238Z,41.87
2019-04-04T17:14:12.406Z,41.10
2019-04-04T17:16:41.665Z,38.90
2019-04-04T17:19:10.902Z,40.87
2019-04-04T17:21:40.414Z,39.83
2019-04-04T17:24:09.861Z,41.97
2019-04-04T17:26:39.371Z,42.73
2019-04-04T17:29:08.588Z,49.00
2019-04-04T17:31:37.888Z,43.60
2019-04-04T17:34:07.615Z,46.63
2019-04-04T17:36:36.524Z,42.37
2019-04-04T17:39:07.418Z,44.67
2019-04-04T17:41:36.991Z,45.90
2019-04-04T17:44:06.585Z,46.40
2019-04-04T17:46:35.502Z,47.97
2019-04-04T17:49:04.444Z,47.60
2019-04-04T17:51:33.685Z,45.13
2019-04-04T17:54:03.721Z,46.10
2019-04-04T17:56:32.862Z,47.13
2019-04-04T17:59:01.769Z,47.07
2019-04-04T18:01:34.202Z,46.33
2019-04-04T18:04:00.730Z,49.87
2019-04-04T18:06:29.994Z,46.20
2019-04-04T18:08:59.309Z,49.17
2019-04-04T18:11:28.576Z,52.17
2019-04-04T18:13:57.859Z,54.10
2019-04-04T18:16:27.152Z,49.50
2019-04-04T18:18:56.586Z,54.10
2019-04-04T18:21:25.812Z,52.73
2019-04-04T18:23:55.186Z,51.47
2019-04-04T18:26:24.428Z,57.20
2019-04-04T18:28:53.661Z,59.93
2019-04-04T18:31:22.950Z,55.30
2019-04-04T18:33:52.631Z,62.43
2019-04-04T18:36:22.100Z,58.30
2019-04-04T18:38:50.781Z,53.33
2019-04-04T18:41:20.063Z,51.13
2019-04-04T18:43:49.372Z,53.27
2019-04-04T18:46:18.618Z,55.40
2019-04-04T18:48:47.854Z,54.37
2019-04-04T18:51:17.220Z,57.73
2019-04-04T18:53:46.456Z,54.10
2019-04-04T18:56:15.826Z,61.77
2019-04-04T18:58:45.062Z,58.77
2019-04-04T19:01:14.783Z,59.70
2019-04-04T19:03:44.042Z,52.40
2019-04-04T19:06:13.294Z,62.57
2019-04-04T19:08:42.558Z,62.77
2019-04-04T19:11:11.790Z,52.17
2019-04-04T19:13:44.438Z,53.50
2019-04-04T19:16:10.360Z,61.43
2019-04-04T19:18:39.580Z,58.63
2019-04-04T19:21:08.813Z,56.37
2019-04-04T19:23:48.623Z,60.10
2019-04-04T19:26:07.359Z,57.50
2019-04-04T19:28:36.587Z,58.97
2019-04-04T19:31:05.815Z,59.97
2019-04-04T19:33:35.090Z,59.30
2019-04-04T19:36:04.346Z,66.40
2019-04-04T19:38:34.680Z,59.40
2019-04-04T19:41:03.947Z,64.60
2019-04-04T19:43:33.237Z,67.13
2019-04-04T19:46:02.486Z,65.27
2019-04-04T19:48:31.716Z,65.73
2019-04-04T19:51:01.001Z,70.27
2019-04-04T19:53:30.303Z,70.27
2019-04-04T19:55:59.523Z,68.83
2019-04-04T19:58:28.743Z,74.60
2019-04-04T20:00:57.970Z,79.87
2019-04-04T20:03:27.234Z,71.00
2019-04-04T20:05:56.472Z,73.77
2019-04-04T20:08:25.797Z,75.10
2019-04-04T20:10:55.261Z,75.00
2019-04-04T20:13:30.792Z,86.53
2019-04-04T20:15:53.918Z,77.07
2019-04-04T20:18:23.142Z,81.73
2019-04-04T20:20:52.651Z,78.43
2019-04-04T20:23:21.868Z,86.57
2019-04-04T20:25:51.107Z,81.23
2019-04-04T20:28:20.321Z,84.50
2019-04-04T20:30:49.569Z,82.63
2019-04-04T20:33:18.794Z,80.23
2019-04-04T20:35:47.986Z,81.67
2019-04-04T20:38:17.239Z,80.10
2019-04-04T20:40:46.546Z,88.77
2019-04-04T20:43:15.834Z,87.20
2019-04-04T20:45:45.147Z,93.43
2019-04-04T20:48:14.434Z,79.10
2019-04-04T20:50:43.717Z,82.77
2019-04-04T20:53:12.932Z,84.00
2019-04-04T20:55:42.161Z,89.97
2019-04-04T20:58:11.492Z,85.43
2019-04-04T21:00:40.846Z,93.17
2019-04-04T21:03:10.246Z,85.63
2019-04-04T21:05:39.502Z,87.57
2019-04-04T21:08:08.954Z,90.23
2019-04-04T21:10:38.341Z,85.73
2019-04-04T21:13:07.650Z,87.80
2019-04-04T21:15:36.971Z,90.60
2019-04-04T21:18:06.314Z,83.30
2019-04-04T21:20:35.680Z,84.83
2019-04-04T21:23:04.889Z,94.30
2019-04-04T21:25:34.124Z,87.03
2019-04-04T21:28:03.368Z,89.27
2019-04-04T21:30:32.652Z,94.43
2019-04-04T21:33:01.981Z,83.50
2019-04-04T21:35:31.190Z,91.67
2019-04-04T21:38:00.432Z,94.80
2019-04-04T21:40:29.746Z,91.23
2019-04-04T21:42:59.010Z,84.87
2019-04-04T21:45:28.354Z,78.73
2019-04-04T21:47:57.574Z,87.47
2019-04-04T21:50:26.816Z,89.60
2019-04-04T21:52:56.090Z,96.63
2019-04-04T21:55:25.388Z,84.07
2019-04-04T21:57:54.643Z,86.23
2019-04-04T22:00:24.222Z,91.43
2019-04-04T22:02:53.557Z,90.27
2019-04-04T22:05:22.832Z,91.53
2019-04-04T22:07:52.142Z,97.00
2019-04-04T22:10:21.491Z,96.63
2019-04-04T22:12:50.798Z,96.27
2019-04-04T22:15:20.131Z,95.33
2019-04-04T22:17:49.424Z,92.30
2019-04-04T22:20:18.791Z,93.63
2019-04-04T22:22:48.083Z,101.37
2019-04-04T22:25:17.393Z,103.40
2019-04-04T22:27:46.684Z,97.43
2019-04-04T22:30:15.949Z,103.67
2019-04-04T22:32:45.220Z,101.73
2019-04-04T22:35:14.500Z,105.83
2019-04-04T22:37:43.841Z,106.50
2019-04-04T22:40:13.115Z,103.80
2019-04-04T22:42:42.399Z,100.43
2019-04-04T22:45:11.687Z,111.03
2019-04-04T22:47:40.950Z,101.70
2019-04-04T22:50:10.194Z,114.40
2019-04-04T22:52:39.519Z,108.43
2019-04-04T22:55:08.820Z,111.90
2019-04-04T22:57:38.095Z,114.33
2019-04-04T23:00:07.732Z,109.60
2019-04-04T23:02:37.069Z,112.80
2019-04-04T23:05:06.339Z,110.33
2019-04-04T23:07:35.578Z,113.70
2019-04-04T23:10:05.748Z,105.90
2019-04-04T23:12:35.046Z,109.27
2019-04-04T23:15:04.552Z,106.63
2019-04-04T23:17:33.800Z,111.93
2019-04-04T23:20:03.087Z,111.27
2019-04-04T23:22:32.455Z,99.20
2019-04-04T23:25:01.708Z,106.13
2019-04-04T23:27:30.978Z,100.67
2019-04-04T23:30:00.232Z,113.67
2019-04-04T23:32:29.560Z,100.13
2019-04-04T23:34:58.836Z,108.27
2019-04-04T23:37:28.147Z,103.83
2019-04-04T23:39:57.422Z,115.07
2019-04-04T23:42:26.750Z,108.93
2019-04-04T23:45:01.182Z,111.10
2019-04-04T23:47:25.351Z,124.50
2019-04-04T23:49:54.605Z,115.83
2019-04-04T23:52:23.948Z,111.53
2019-04-04T23:54:53.214Z,120.33
2019-04-04T23:57:22.478Z,124.17
2019-04-04T23:59:51.740Z,113.13
